Robijn — PBEJ — position and weather

sailwx.info

Track history (hours):
 
Tides and Currents Weather Stations Pressure Air Temp Water Temp Dewpoint Dewpoint Depression Visibility Wind Speed Wind Dir Waves Ship Positions

Robijn

Last reported at 2017-Mar-25 03:33 UTC. Time now 2017-Mar-25 04:04 UTC.
Position N 51°19' E 003°49'.

Length 90 m; draft 4.6 m.

Type: Cargo ship. MMSI: 245909000.

Date/timePositionNaut miles runAvg speedWind from/ knotsBaromVisibWave heightAir tempDewpointWater temp
2017-Mar-25 03:33N 51°19' E 003°49'0 0.0
2017-Mar-25 02:33N 51°19' E 003°49'0 0.0
2017-Mar-25 01:33N 51°19' E 003°49'0 0.0
2017-Mar-25 00:30N 51°19' E 003°49'0 0.0
2017-Mar-24 23:33N 51°19' E 003°49'0 0.0
2017-Mar-24 22:33N 51°19' E 003°49'0 0.0
2017-Mar-24 21:27N 51°19' E 003°49'0 0.0
2017-Mar-24 20:27N 51°19' E 003°49'0 0.0
2017-Mar-24 19:33N 51°19' E 003°49'0 0.0
2017-Mar-24 18:30N 51°19' E 003°49'0 0.0
2017-Mar-24 17:30N 51°19' E 003°49'1 1.0
2017-Mar-24 16:33N 51°18' E 003°50'0 0.0
2017-Mar-24 15:33N 51°18' E 003°50'0 0.0
2017-Mar-24 14:27N 51°18' E 003°50'0 0.0
2017-Mar-24 13:33N 51°18' E 003°50'0 0.0
2017-Mar-24 12:27N 51°18' E 003°50'0 0.0
2017-Mar-24 11:33N 51°18' E 003°50'0 0.0
2017-Mar-24 10:33N 51°18' E 003°50'0 0.0
2017-Mar-24 09:24N 51°18' E 003°50'0 0.0
2017-Mar-24 08:30N 51°18' E 003°50'0 0.0
2017-Mar-24 07:26N 51°18' E 003°50'0 0.0
2017-Mar-24 06:31N 51°18' E 003°50'0 0.0
2017-Mar-24 05:28N 51°18' E 003°50'0 0.0
2017-Mar-24 04:31N 51°18' E 003°50'0 0.0
2017-Mar-24 03:22N 51°18' E 003°50'0 0.0
2017-Mar-24 02:28N 51°18' E 003°50'0 0.0
2017-Mar-24 01:31N 51°18' E 003°50'0 0.0
2017-Mar-24 00:28N 51°18' E 003°50'0 0.0
2017-Mar-23 23:31N 51°18' E 003°50'0 0.0
2017-Mar-23 22:28N 51°18' E 003°50'0 0.0
2017-Mar-23 21:28N 51°18' E 003°50'0 0.0
2017-Mar-23 20:22N 51°18' E 003°50'0 0.0
2017-Mar-23 19:31N 51°18' E 003°50'0 0.0
2017-Mar-23 18:22N 51°18' E 003°50'0 0.0
2017-Mar-23 17:31N 51°18' E 003°50'0 0.0
2017-Mar-23 16:28N 51°18' E 003°50'0 0.0
2017-Mar-23 15:28N 51°18' E 003°50'0 0.0
2017-Mar-23 14:31N 51°18' E 003°50'0 0.0
2017-Mar-23 13:31N 51°18' E 003°50'0 0.1
2017-Mar-23 12:31N 51°18' E 003°50'0 0.0
2017-Mar-23 11:28N 51°18' E 003°50'0 0.0
2017-Mar-23 10:31N 51°18' E 003°50'0 0.0
2017-Mar-23 09:31N 51°18' E 003°50'0 0.0
2017-Mar-23 08:16N 51°18' E 003°50'0 0.0
2017-Mar-23 07:28N 51°18' E 003°50'0 0.0
2017-Mar-23 06:22N 51°18' E 003°50'0 0.0
2017-Mar-23 05:25N 51°18' E 003°50'0 0.0
2017-Mar-23 04:28N 51°18' E 003°50'0 0.0
2017-Mar-23 03:28N 51°18' E 003°50'0 0.0
2017-Mar-23 02:28N 51°18' E 003°50'0 0.0
2017-Mar-23 01:28N 51°18' E 003°50'1 1.6
2017-Mar-23 00:33N 51°20' E 003°49'3 3.5
2017-Mar-22 23:33N 51°22' E 003°45'8 8.0
2017-Mar-22 22:33N 51°26' E 003°34'9 9.3
2017-Mar-22 21:33N 51°33' E 003°25'1010.4
2017-Mar-22 20:34N 51°42' E 003°16'6910.9
2017-Mar-22 14:15N 52°49' E 003°47'1110.9
2017-Mar-22 13:13N 52°57' E 003°60'710.6
2017-Mar-22 12:31N 53°01' E 004°10'1010.1
2017-Mar-22 11:31N 53°08' E 004°22'135 9.4
2017-Mar-21 21:10N 54°02' E 007°51'610.4
2017-Mar-21 20:33N 54°02' E 008°02'1110.5
2017-Mar-21 19:33N 54°00' E 008°19'1111.4
2017-Mar-21 18:33N 53°57' E 008°38'10 9.6
2017-Mar-21 17:33N 53°51' E 008°49'8 8.5
2017-Mar-21 16:33N 53°52' E 009°03'4 4.1
2017-Mar-21 15:34N 53°54' E 009°10'4 4.1
2017-Mar-21 14:34N 53°57' E 009°14'52 6.4
2017-Mar-21 06:28N 54°31' E 010°22'1010.9
2017-Mar-21 05:33N 54°35' E 010°38'1111.1
2017-Mar-21 04:33N 54°36' E 010°57'1010.4
2017-Mar-21 03:33N 54°34' E 011°15'1110.7
2017-Mar-21 02:34N 54°30' E 011°32'1110.7
2017-Mar-21 01:33N 54°27' E 011°49'1010.1
2017-Mar-21 00:34N 54°27' E 012°07'10 9.8
2017-Mar-20 23:33N 54°36' E 012°14'9 9.3
2017-Mar-20 22:33N 54°42' E 012°26'5210.4
2017-Mar-20 17:31N 55°02' E 013°51'1110.9
2017-Mar-20 16:32N 55°07' E 014°07'1111.0
2017-Mar-20 15:33N 55°15' E 014°19'1110.9
2017-Mar-20 14:33N 55°24' E 014°31'1010.3
2017-Mar-20 13:33N 55°30' E 014°46'1010.3
2017-Mar-20 12:33N 55°35' E 015°02'1010.5
2017-Mar-20 11:34N 55°41' E 015°17'1110.5
2017-Mar-20 10:34N 55°46' E 015°33'1110.6
2017-Mar-20 09:33N 55°52' E 015°49'1010.2
2017-Mar-20 08:33N 55°56' E 016°06'1110.6
2017-Mar-20 07:33N 56°02' E 016°22'1110.7
2017-Mar-20 06:33N 56°07' E 016°39'1110.5
2017-Mar-20 05:33N 56°14' E 016°53'28610.8
2017-Mar-19 03:06N 59°36' E 023°13'611.3
2017-Mar-19 02:33N 59°38' E 023°24'1111.0
2017-Mar-19 01:33N 59°41' E 023°45'7111.1
2017-Mar-18 19:09N 60°00' E 026°01'711.3
2017-Mar-18 18:33N 60°05' E 026°11'1111.2
2017-Mar-18 17:33N 60°14' E 026°24'1110.8
2017-Mar-18 16:33N 60°21' E 026°40'1010.1
2017-Mar-18 15:33N 60°27' E 026°58'8 7.9
2017-Mar-18 14:33N 60°32' E 027°10'0 0.0
2017-Mar-18 13:30N 60°32' E 027°10'0 0.0
2017-Mar-18 12:33N 60°32' E 027°10'0 0.0
2017-Mar-18 11:30N 60°32' E 027°10'0 0.0
2017-Mar-18 10:33N 60°32' E 027°10'0 0.0
2017-Mar-18 09:27N 60°32' E 027°10'0 0.0
2017-Mar-18 08:33N 60°32' E 027°10'0 0.0
2017-Mar-18 07:33N 60°32' E 027°10'0 0.0
2017-Mar-18 06:24N 60°32' E 027°10'0 0.0
2017-Mar-18 05:33N 60°32' E 027°10'0 0.0
2017-Mar-18 04:33N 60°32' E 027°10'0 0.0
2017-Mar-18 03:33N 60°32' E 027°10'0 0.0
2017-Mar-18 02:33N 60°32' E 027°10'0 0.0
2017-Mar-18 01:33N 60°32' E 027°10'0 0.0
2017-Mar-18 00:33N 60°32' E 027°10'0 0.0
2017-Mar-17 23:33N 60°32' E 027°10'0 0.0
2017-Mar-17 22:33N 60°32' E 027°10'0 0.0
2017-Mar-17 21:33N 60°32' E 027°10'0 0.0
2017-Mar-17 20:33N 60°32' E 027°10'0 0.0
2017-Mar-17 19:33N 60°32' E 027°10'0 0.0
2017-Mar-17 18:33N 60°32' E 027°10'0 0.0
2017-Mar-17 17:33N 60°32' E 027°10'0 0.0
2017-Mar-17 16:33N 60°32' E 027°10'0 0.0
2017-Mar-17 15:30N 60°32' E 027°10'0 0.0
2017-Mar-17 14:33N 60°32' E 027°10'0 0.0
2017-Mar-17 13:27N 60°32' E 027°10'0 0.0
2017-Mar-17 12:30N 60°32' E 027°10'0 0.0
2017-Mar-17 11:33N 60°32' E 027°10'0 0.0
2017-Mar-17 10:33N 60°32' E 027°10'0 0.0
2017-Mar-17 09:33N 60°32' E 027°10'0 0.0
2017-Mar-17 08:34N 60°32' E 027°10'6 5.7
2017-Mar-17 07:34N 60°28' E 027°01'6 6.1
2017-Mar-17 06:34N 60°24' E 026°52'0 0.2
2017-Mar-17 05:34N 60°24' E 026°52'6 5.5
2017-Mar-17 04:34N 60°22' E 026°41'1111.3
2017-Mar-17 03:34N 60°14' E 026°25'1111.3
2017-Mar-17 02:34N 60°05' E 026°12'1010.2
2017-Mar-17 01:33N 59°56' E 025°60'5811.3
2017-Mar-16 20:28N 59°42' E 024°09'1112.0
2017-Mar-16 19:33N 59°38' E 023°49'1212.1
2017-Mar-16 18:33N 59°34' E 023°26'2412.1
2017-Mar-16 16:31N 59°25' E 022°41'159 8.8
2017-Mar-15 22:33N 59°21' E 017°29'  
Track history (hours):
 
Tides and Currents Weather Stations Pressure Air Temp Water Temp Dewpoint Dewpoint Depression Visibility Wind Speed Wind Dir Waves Ship Positions

Robijn

Last reported at 2017-Mar-25 03:33 UTC. Time now 2017-Mar-25 04:04 UTC.
Position N 51°19' E 003°49'.

Length 90 m; draft 4.6 m.

Type: Cargo ship. MMSI: 245909000.

Date/timePositionNaut miles runAvg speedWind from/ knotsBaromVisibWave heightAir tempDewpointWater temp
2017-Mar-25 03:33N 51°19' E 003°49'0 0.0
2017-Mar-25 02:33N 51°19' E 003°49'0 0.0
2017-Mar-25 01:33N 51°19' E 003°49'0 0.0
2017-Mar-25 00:30N 51°19' E 003°49'0 0.0
2017-Mar-24 23:33N 51°19' E 003°49'0 0.0
2017-Mar-24 22:33N 51°19' E 003°49'0 0.0
2017-Mar-24 21:27N 51°19' E 003°49'0 0.0
2017-Mar-24 20:27N 51°19' E 003°49'0 0.0
2017-Mar-24 19:33N 51°19' E 003°49'0 0.0
2017-Mar-24 18:30N 51°19' E 003°49'0 0.0
2017-Mar-24 17:30N 51°19' E 003°49'1 1.0
2017-Mar-24 16:33N 51°18' E 003°50'0 0.0
2017-Mar-24 15:33N 51°18' E 003°50'0 0.0
2017-Mar-24 14:27N 51°18' E 003°50'0 0.0
2017-Mar-24 13:33N 51°18' E 003°50'0 0.0
2017-Mar-24 12:27N 51°18' E 003°50'0 0.0
2017-Mar-24 11:33N 51°18' E 003°50'0 0.0
2017-Mar-24 10:33N 51°18' E 003°50'0 0.0
2017-Mar-24 09:24N 51°18' E 003°50'0 0.0
2017-Mar-24 08:30N 51°18' E 003°50'0 0.0
2017-Mar-24 07:26N 51°18' E 003°50'0 0.0
2017-Mar-24 06:31N 51°18' E 003°50'0 0.0
2017-Mar-24 05:28N 51°18' E 003°50'0 0.0
2017-Mar-24 04:31N 51°18' E 003°50'0 0.0
2017-Mar-24 03:22N 51°18' E 003°50'0 0.0
2017-Mar-24 02:28N 51°18' E 003°50'0 0.0
2017-Mar-24 01:31N 51°18' E 003°50'0 0.0
2017-Mar-24 00:28N 51°18' E 003°50'0 0.0
2017-Mar-23 23:31N 51°18' E 003°50'0 0.0
2017-Mar-23 22:28N 51°18' E 003°50'0 0.0
2017-Mar-23 21:28N 51°18' E 003°50'0 0.0
2017-Mar-23 20:22N 51°18' E 003°50'0 0.0
2017-Mar-23 19:31N 51°18' E 003°50'0 0.0
2017-Mar-23 18:22N 51°18' E 003°50'0 0.0
2017-Mar-23 17:31N 51°18' E 003°50'0 0.0
2017-Mar-23 16:28N 51°18' E 003°50'0 0.0
2017-Mar-23 15:28N 51°18' E 003°50'0 0.0
2017-Mar-23 14:31N 51°18' E 003°50'0 0.0
2017-Mar-23 13:31N 51°18' E 003°50'0 0.1
2017-Mar-23 12:31N 51°18' E 003°50'0 0.0
2017-Mar-23 11:28N 51°18' E 003°50'0 0.0
2017-Mar-23 10:31N 51°18' E 003°50'0 0.0
2017-Mar-23 09:31N 51°18' E 003°50'0 0.0
2017-Mar-23 08:16N 51°18' E 003°50'0 0.0
2017-Mar-23 07:28N 51°18' E 003°50'0 0.0
2017-Mar-23 06:22N 51°18' E 003°50'0 0.0
2017-Mar-23 05:25N 51°18' E 003°50'0 0.0
2017-Mar-23 04:28N 51°18' E 003°50'0 0.0
2017-Mar-23 03:28N 51°18' E 003°50'0 0.0
2017-Mar-23 02:28N 51°18' E 003°50'0 0.0
2017-Mar-23 01:28N 51°18' E 003°50'1 1.6
2017-Mar-23 00:33N 51°20' E 003°49'3 3.5
2017-Mar-22 23:33N 51°22' E 003°45'8 8.0
2017-Mar-22 22:33N 51°26' E 003°34'9 9.3
2017-Mar-22 21:33N 51°33' E 003°25'1010.4
2017-Mar-22 20:34N 51°42' E 003°16'6910.9
2017-Mar-22 14:15N 52°49' E 003°47'1110.9
2017-Mar-22 13:13N 52°57' E 003°60'710.6
2017-Mar-22 12:31N 53°01' E 004°10'1010.1
2017-Mar-22 11:31N 53°08' E 004°22'135 9.4
2017-Mar-21 21:10N 54°02' E 007°51'610.4
2017-Mar-21 20:33N 54°02' E 008°02'1110.5
2017-Mar-21 19:33N 54°00' E 008°19'1111.4
2017-Mar-21 18:33N 53°57' E 008°38'10 9.6
2017-Mar-21 17:33N 53°51' E 008°49'8 8.5
2017-Mar-21 16:33N 53°52' E 009°03'4 4.1
2017-Mar-21 15:34N 53°54' E 009°10'4 4.1
2017-Mar-21 14:34N 53°57' E 009°14'52 6.4
2017-Mar-21 06:28N 54°31' E 010°22'1010.9
2017-Mar-21 05:33N 54°35' E 010°38'1111.1
2017-Mar-21 04:33N 54°36' E 010°57'1010.4
2017-Mar-21 03:33N 54°34' E 011°15'1110.7
2017-Mar-21 02:34N 54°30' E 011°32'1110.7
2017-Mar-21 01:33N 54°27' E 011°49'1010.1
2017-Mar-21 00:34N 54°27' E 012°07'10 9.8
2017-Mar-20 23:33N 54°36' E 012°14'9 9.3
2017-Mar-20 22:33N 54°42' E 012°26'5210.4
2017-Mar-20 17:31N 55°02' E 013°51'1110.9
2017-Mar-20 16:32N 55°07' E 014°07'1111.0
2017-Mar-20 15:33N 55°15' E 014°19'1110.9
2017-Mar-20 14:33N 55°24' E 014°31'1010.3
2017-Mar-20 13:33N 55°30' E 014°46'1010.3
2017-Mar-20 12:33N 55°35' E 015°02'1010.5
2017-Mar-20 11:34N 55°41' E 015°17'1110.5
2017-Mar-20 10:34N 55°46' E 015°33'1110.6
2017-Mar-20 09:33N 55°52' E 015°49'1010.2
2017-Mar-20 08:33N 55°56' E 016°06'1110.6
2017-Mar-20 07:33N 56°02' E 016°22'1110.7
2017-Mar-20 06:33N 56°07' E 016°39'1110.5
2017-Mar-20 05:33N 56°14' E 016°53'28610.8
2017-Mar-19 03:06N 59°36' E 023°13'611.3
2017-Mar-19 02:33N 59°38' E 023°24'1111.0
2017-Mar-19 01:33N 59°41' E 023°45'7111.1
2017-Mar-18 19:09N 60°00' E 026°01'711.3
2017-Mar-18 18:33N 60°05' E 026°11'1111.2
2017-Mar-18 17:33N 60°14' E 026°24'1110.8
2017-Mar-18 16:33N 60°21' E 026°40'1010.1
2017-Mar-18 15:33N 60°27' E 026°58'8 7.9
2017-Mar-18 14:33N 60°32' E 027°10'0 0.0
2017-Mar-18 13:30N 60°32' E 027°10'0 0.0
2017-Mar-18 12:33N 60°32' E 027°10'0 0.0
2017-Mar-18 11:30N 60°32' E 027°10'0 0.0
2017-Mar-18 10:33N 60°32' E 027°10'0 0.0
2017-Mar-18 09:27N 60°32' E 027°10'0 0.0
2017-Mar-18 08:33N 60°32' E 027°10'0 0.0
2017-Mar-18 07:33N 60°32' E 027°10'0 0.0
2017-Mar-18 06:24N 60°32' E 027°10'0 0.0
2017-Mar-18 05:33N 60°32' E 027°10'0 0.0
2017-Mar-18 04:33N 60°32' E 027°10'0 0.0
2017-Mar-18 03:33N 60°32' E 027°10'0 0.0
2017-Mar-18 02:33N 60°32' E 027°10'0 0.0
2017-Mar-18 01:33N 60°32' E 027°10'0 0.0
2017-Mar-18 00:33N 60°32' E 027°10'0 0.0
2017-Mar-17 23:33N 60°32' E 027°10'0 0.0
2017-Mar-17 22:33N 60°32' E 027°10'0 0.0
2017-Mar-17 21:33N 60°32' E 027°10'0 0.0
2017-Mar-17 20:33N 60°32' E 027°10'0 0.0
2017-Mar-17 19:33N 60°32' E 027°10'0 0.0
2017-Mar-17 18:33N 60°32' E 027°10'0 0.0
2017-Mar-17 17:33N 60°32' E 027°10'0 0.0
2017-Mar-17 16:33N 60°32' E 027°10'0 0.0
2017-Mar-17 15:30N 60°32' E 027°10'0 0.0
2017-Mar-17 14:33N 60°32' E 027°10'0 0.0
2017-Mar-17 13:27N 60°32' E 027°10'0 0.0
2017-Mar-17 12:30N 60°32' E 027°10'0 0.0
2017-Mar-17 11:33N 60°32' E 027°10'0 0.0
2017-Mar-17 10:33N 60°32' E 027°10'0 0.0
2017-Mar-17 09:33N 60°32' E 027°10'0 0.0
2017-Mar-17 08:34N 60°32' E 027°10'6 5.7
2017-Mar-17 07:34N 60°28' E 027°01'6 6.1
2017-Mar-17 06:34N 60°24' E 026°52'0 0.2
2017-Mar-17 05:34N 60°24' E 026°52'6 5.5
2017-Mar-17 04:34N 60°22' E 026°41'1111.3
2017-Mar-17 03:34N 60°14' E 026°25'1111.3
2017-Mar-17 02:34N 60°05' E 026°12'1010.2
2017-Mar-17 01:33N 59°56' E 025°60'5811.3
2017-Mar-16 20:28N 59°42' E 024°09'1112.0
2017-Mar-16 19:33N 59°38' E 023°49'1212.1
2017-Mar-16 18:33N 59°34' E 023°26'2412.1
2017-Mar-16 16:31N 59°25' E 022°41'159 8.8
2017-Mar-15 22:33N 59°21' E 017°29'  

Dump ship's entire track history